Time;durP1;ratioP1;P1;durP2;ratioP2;P2;SDS_P1;SDS_P2;PMS_P1;PMS_P2;Temp;Humidity;BMP_temperature;BMP_pressure;BME280_temperature;BME280_humidity;BME280_pressure;Samples;Min_cycle;Max_cycle;Signal;HPM_P1;HPM_P2
2022/07/05 00:01:10;;;;;;;4.28;2.88;;;21.30;99.90;;;;;;4929995;29;20044;-83
2022/07/05 00:03:35;;;;;;;5.30;2.95;;;21.30;99.90;;;;;;4923255;29;20481;-82
2022/07/05 00:06:01;;;;;;;3.47;2.88;;;21.30;99.90;;;;;;4921380;29;20116;-81
2022/07/05 00:08:27;;;;;;;6.82;3.00;;;21.30;99.90;;;;;;4923262;29;20032;-81
2022/07/05 00:10:53;;;;;;;5.22;2.65;;;21.30;99.90;;;;;;4932923;29;20032;-81
2022/07/05 00:13:19;;;;;;;5.75;2.95;;;21.30;99.90;;;;;;4923744;29;20035;-82
2022/07/05 00:15:45;;;;;;;3.78;2.75;;;21.30;99.90;;;;;;4923456;29;20040;-81
2022/07/05 00:18:10;;;;;;;5.10;3.13;;;21.20;99.90;;;;;;4936351;29;20155;-81
2022/07/05 00:20:36;;;;;;;8.55;3.30;;;21.20;99.90;;;;;;4922926;29;20047;-81
2022/07/05 00:23:02;;;;;;;6.50;3.20;;;21.10;99.90;;;;;;4928573;29;20396;-81
2022/07/05 00:25:28;;;;;;;7.35;3.17;;;21.20;99.90;;;;;;4927041;29;20036;-82
2022/07/05 00:27:54;;;;;;;5.85;3.08;;;21.10;99.90;;;;;;4925642;29;20028;-81
2022/07/05 00:30:20;;;;;;;7.82;3.28;;;21.10;99.90;;;;;;4903687;29;20520;-82
2022/07/05 00:32:45;;;;;;;7.72;3.20;;;21.20;99.90;;;;;;4919797;29;20100;-81
2022/07/05 00:35:11;;;;;;;5.82;3.00;;;21.20;99.90;;;;;;4918332;29;20032;-81
2022/07/05 00:37:37;;;;;;;6.68;3.40;;;21.20;99.90;;;;;;4920599;29;20064;-81
2022/07/05 00:40:04;;;;;;;5.10;3.15;;;21.20;99.90;;;;;;4902699;29;20031;-82
2022/07/05 00:42:30;;;;;;;5.20;3.10;;;21.10;99.90;;;;;;4921447;29;20079;-81
2022/07/05 00:44:56;;;;;;;7.50;3.08;;;21.20;99.90;;;;;;4922539;29;20055;-82
2022/07/05 00:47:23;;;;;;;4.15;3.03;;;21.20;99.90;;;;;;4924118;29;20027;-82
2022/07/05 00:49:49;;;;;;;4.03;2.85;;;21.10;99.90;;;;;;4922345;29;20124;-83
2022/07/05 00:52:15;;;;;;;3.72;3.03;;;21.10;99.90;;;;;;4973270;23;20107;-85
2022/07/05 00:54:42;;;;;;;5.35;3.10;;;21.10;99.90;;;;;;4945220;29;20034;-85
2022/07/05 00:57:08;;;;;;;5.18;3.25;;;21.10;99.90;;;;;;4944105;29;20039;-85
2022/07/05 00:59:34;;;;;;;5.85;3.30;;;21.00;99.90;;;;;;4944993;29;20036;-86
2022/07/05 01:02:00;;;;;;;5.50;3.50;;;21.00;99.90;;;;;;4944362;29;20030;-84
2022/07/05 01:04:27;;;;;;;3.70;3.10;;;21.00;99.90;;;;;;4944456;29;20453;-87
2022/07/05 01:06:53;;;;;;;4.95;3.72;;;21.00;99.90;;;;;;4944549;29;20481;-85
2022/07/05 01:09:21;;;;;;;5.32;3.25;;;21.00;99.90;;;;;;4942610;29;20027;-86
2022/07/05 01:11:48;;;;;;;7.75;3.42;;;20.90;99.90;;;;;;4943518;29;20036;-85
2022/07/05 01:14:21;;;;;;;4.78;2.70;;;21.00;99.90;;;;;;4947328;29;20032;-85
2022/07/05 01:16:51;;;;;;;3.35;2.63;;;20.90;99.90;;;;;;4943721;29;20056;-86
2022/07/05 01:19:18;;;;;;;5.38;2.83;;;20.90;99.90;;;;;;4944657;29;20102;-85
2022/07/05 01:21:47;;;;;;;8.38;3.00;;;21.00;99.90;;;;;;4943481;29;20087;-84
2022/07/05 01:24:16;;;;;;;6.05;2.75;;;21.00;99.90;;;;;;4944373;29;20024;-84
2022/07/05 01:26:46;;;;;;;4.43;3.15;;;20.90;99.90;;;;;;4944958;29;20027;-85
2022/07/05 01:29:12;;;;;;;4.68;2.92;;;20.90;99.90;;;;;;4944836;29;20416;-85
2022/07/05 01:31:39;;;;;;;5.50;2.90;;;20.90;99.90;;;;;;4944621;29;20024;-84
2022/07/05 01:34:06;;;;;;;7.22;3.17;;;20.80;99.90;;;;;;4944302;29;20035;-86
2022/07/05 01:36:34;;;;;;;5.10;2.70;;;20.90;99.90;;;;;;4944356;29;20100;-83
2022/07/05 01:39:02;;;;;;;3.50;2.38;;;20.90;99.90;;;;;;4943592;29;20408;-82
2022/07/05 01:41:28;;;;;;;4.28;2.38;;;21.30;99.90;;;;;;4944472;29;20027;-84
2022/07/05 01:43:56;;;;;;;3.55;2.22;;;21.70;99.90;;;;;;4945572;29;20082;-85
2022/07/05 01:46:23;;;;;;;4.00;2.10;;;21.70;99.90;;;;;;4946794;29;20048;-82
2022/07/05 01:48:55;;;;;;;9.63;4.45;;;21.80;99.90;;;;;;4945813;29;20040;-86
2022/07/05 01:51:34;;;;;;;8.68;4.18;;;21.70;99.90;;;;;;4947145;29;20035;-85
2022/07/05 01:53:59;;;;;;;9.02;4.47;;;21.50;99.90;;;;;;4950606;29;20018;-85
2022/07/05 01:56:25;;;;;;;8.65;4.40;;;21.40;99.90;;;;;;4947114;29;20055;-86
2022/07/05 01:58:53;;;;;;;10.45;4.90;;;21.20;99.90;;;;;;4931671;29;20038;-83
2022/07/05 02:01:40;;;;;;;5.05;3.42;;;21.10;99.90;;;;;;4944548;29;20047;-85
2022/07/05 02:04:07;;;;;;;3.63;3.05;;;20.90;99.90;;;;;;4945528;29;20059;-84
2022/07/05 02:06:34;;;;;;;5.20;3.60;;;20.80;99.90;;;;;;4954775;29;20051;-84
2022/07/05 02:09:03;;;;;;;8.32;4.45;;;20.70;99.90;;;;;;4955395;29;20042;-84
2022/07/05 02:11:29;;;;;;;16.58;7.65;;;20.60;99.90;;;;;;4955140;29;20086;-84
2022/07/05 02:13:57;;;;;;;17.10;8.50;;;20.60;99.90;;;;;;4954578;29;20036;-84
2022/07/05 02:16:26;;;;;;;10.35;4.53;;;20.50;99.90;;;;;;4954921;29;20054;-83
2022/07/05 02:18:52;;;;;;;4.97;3.47;;;20.50;99.90;;;;;;4946523;29;20039;-84
2022/07/05 02:21:18;;;;;;;6.20;3.45;;;20.40;99.90;;;;;;4943567;29;20027;-84
2022/07/05 02:23:46;;;;;;;4.90;3.55;;;20.30;99.90;;;;;;4943595;29;20036;-84
2022/07/05 02:26:12;;;;;;;5.72;3.13;;;20.30;99.90;;;;;;4945080;29;20031;-84
2022/07/05 02:28:40;;;;;;;10.35;3.67;;;20.30;99.90;;;;;;4947648;29;20056;-85
2022/07/05 02:31:07;;;;;;;5.75;4.18;;;20.30;99.90;;;;;;4947327;29;20023;-85
2022/07/05 02:33:33;;;;;;;4.78;3.95;;;20.30;99.90;;;;;;4945847;29;20047;-84
2022/07/05 02:36:09;;;;;;;2.92;2.42;;;20.30;99.90;;;;;;4948183;29;20024;-85
2022/07/05 02:38:35;;;;;;;3.05;2.53;;;20.30;99.90;;;;;;4951033;29;20036;-83
2022/07/05 02:41:05;;;;;;;3.95;2.53;;;20.30;99.90;;;;;;4948126;29;20023;-86
2022/07/05 02:43:33;;;;;;;5.20;2.45;;;20.30;99.90;;;;;;4944589;29;20074;-84
2022/07/05 02:46:00;;;;;;;3.40;2.50;;;20.40;99.90;;;;;;4951167;29;20107;-84
2022/07/05 02:48:27;;;;;;;7.72;4.50;;;20.40;99.90;;;;;;4943888;29;20035;-84
2022/07/05 02:50:53;;;;;;;4.53;3.60;;;20.40;99.90;;;;;;4943063;29;20070;-84
2022/07/05 02:53:19;;;;;;;2.90;2.53;;;20.30;99.90;;;;;;4944823;29;20031;-84
2022/07/05 02:55:45;;;;;;;6.22;2.60;;;20.30;99.90;;;;;;4946112;29;20403;-84
2022/07/05 02:58:11;;;;;;;4.15;2.70;;;20.30;99.90;;;;;;4943693;29;20034;-81
2022/07/05 03:00:37;;;;;;;3.90;2.55;;;20.30;99.90;;;;;;4928040;29;20043;-84
2022/07/05 03:03:03;;;;;;;2.67;2.10;;;20.40;99.90;;;;;;4943090;29;20028;-84
2022/07/05 03:05:31;;;;;;;3.03;2.33;;;20.50;99.90;;;;;;4942404;29;20091;-83
2022/07/05 03:08:02;;;;;;;4.53;2.35;;;20.50;99.90;;;;;;4927258;29;20027;-83
2022/07/05 03:10:30;;;;;;;5.05;2.00;;;20.50;99.90;;;;;;4942850;29;20095;-84
2022/07/05 03:12:57;;;;;;;3.17;2.00;;;20.70;99.90;;;;;;4944327;29;20484;-85
2022/07/05 03:15:24;;;;;;;3.35;1.95;;;20.70;99.90;;;;;;4928107;29;20061;-84
2022/07/05 03:17:50;;;;;;;3.03;1.75;;;20.80;99.90;;;;;;4942173;29;20460;-86
2022/07/05 03:20:18;;;;;;;3.38;1.80;;;20.80;99.90;;;;;;4945239;29;20206;-82
2022/07/05 03:22:45;;;;;;;2.60;2.40;;;20.80;99.90;;;;;;4943704;29;20056;-84
2022/07/05 03:25:12;;;;;;;6.10;2.00;;;20.90;99.90;;;;;;4943501;29;20059;-83
2022/07/05 03:27:38;;;;;;;8.43;2.00;;;20.90;99.90;;;;;;4943376;29;20091;-88
2022/07/05 03:30:05;;;;;;;2.65;2.17;;;20.90;99.90;;;;;;4944022;29;20031;-85
2022/07/05 03:32:33;;;;;;;5.78;2.47;;;20.90;99.90;;;;;;4942033;29;20030;-85
2022/07/05 03:35:00;;;;;;;4.20;2.20;;;20.90;99.90;;;;;;4954482;28;20059;-84
2022/07/05 03:37:26;;;;;;;2.92;2.42;;;20.90;99.90;;;;;;4940864;29;20083;-83
2022/07/05 03:39:52;;;;;;;3.50;2.50;;;20.90;99.90;;;;;;4954248;29;20043;-83
2022/07/05 03:42:18;;;;;;;5.10;2.85;;;21.00;99.90;;;;;;4943107;29;20030;-84
2022/07/05 03:44:44;;;;;;;4.07;2.80;;;21.00;99.90;;;;;;4942762;29;20028;-85
2022/07/05 03:47:11;;;;;;;8.43;3.75;;;21.00;99.90;;;;;;4942958;29;20093;-85
2022/07/05 03:49:37;;;;;;;6.35;3.03;;;21.00;99.90;;;;;;4944283;29;20032;-87
2022/07/05 03:52:03;;;;;;;4.43;3.03;;;21.10;99.90;;;;;;4947717;29;20043;-86
2022/07/05 03:54:30;;;;;;;5.53;3.08;;;21.10;99.90;;;;;;4954657;29;20026;-85
2022/07/05 03:56:56;;;;;;;5.72;2.90;;;21.10;99.90;;;;;;4944174;29;20035;-85
2022/07/05 03:59:21;;;;;;;5.80;3.05;;;21.10;99.90;;;;;;4944824;29;20032;-85
2022/07/05 04:01:48;;;;;;;7.47;3.08;;;21.10;99.90;;;;;;4947502;29;20035;-85
2022/07/05 04:04:14;;;;;;;6.80;3.25;;;21.10;99.90;;;;;;4948865;29;20039;-85
2022/07/05 04:06:40;;;;;;;3.97;2.75;;;21.10;99.90;;;;;;4948772;29;20023;-84
2022/07/05 04:09:06;;;;;;;3.72;2.85;;;21.10;99.90;;;;;;4948097;29;20036;-85
2022/07/05 04:11:33;;;;;;;6.10;3.08;;;21.10;99.90;;;;;;4951378;29;20491;-83
2022/07/05 04:13:59;;;;;;;6.78;2.90;;;21.10;99.90;;;;;;4948162;29;20406;-86
2022/07/05 04:16:26;;;;;;;4.75;3.28;;;21.20;99.90;;;;;;4949234;29;20028;-85
2022/07/05 04:18:52;;;;;;;4.60;2.47;;;21.20;99.90;;;;;;4938496;29;20043;-82
2022/07/05 04:21:18;;;;;;;3.83;2.40;;;21.20;99.90;;;;;;4954733;29;20032;-83
2022/07/05 04:23:44;;;;;;;5.10;2.30;;;21.20;99.90;;;;;;4956370;29;20035;-83
2022/07/05 04:26:10;;;;;;;7.05;2.20;;;21.30;99.90;;;;;;4939459;29;20028;-84
2022/07/05 04:28:40;;;;;;;5.88;2.70;;;21.40;99.90;;;;;;4955959;29;20024;-84
2022/07/05 04:31:09;;;;;;;5.50;2.45;;;21.50;99.90;;;;;;4955312;29;20027;-84
2022/07/05 04:33:40;;;;;;;2.50;1.92;;;21.50;99.90;;;;;;4955075;29;20124;-86
2022/07/05 04:36:08;;;;;;;3.35;1.75;;;21.50;99.90;;;;;;4953250;29;20104;-84
2022/07/05 04:38:35;;;;;;;2.60;2.38;;;21.40;99.90;;;;;;4954028;29;20059;-84
2022/07/05 04:41:03;;;;;;;7.05;2.20;;;21.40;99.90;;;;;;4955763;29;20035;-84
2022/07/05 04:43:30;;;;;;;5.88;2.22;;;21.40;99.90;;;;;;4956105;29;20020;-83
2022/07/05 04:45:56;;;;;;;2.83;1.85;;;21.40;99.90;;;;;;4956343;29;20059;-85
2022/07/05 04:48:23;;;;;;;2.80;1.90;;;21.50;99.90;;;;;;4953352;29;20569;-86
2022/07/05 04:50:49;;;;;;;4.45;2.15;;;21.40;99.90;;;;;;4933612;29;20035;-86
2022/07/05 04:53:15;;;;;;;3.17;2.03;;;21.50;99.90;;;;;;4949630;29;20027;-86
2022/07/05 04:55:41;;;;;;;8.02;2.50;;;21.40;99.90;;;;;;4948935;29;20039;-84
2022/07/05 04:58:07;;;;;;;4.00;2.35;;;21.40;99.90;;;;;;4949569;29;20031;-85
2022/07/05 05:00:33;;;;;;;3.90;2.55;;;21.40;99.90;;;;;;4952277;29;20036;-85
2022/07/05 05:02:58;;;;;;;6.13;2.45;;;21.40;99.90;;;;;;4952527;29;20500;-87
2022/07/05 05:05:24;;;;;;;5.63;2.28;;;21.40;99.90;;;;;;4950189;29;20024;-87
2022/07/05 05:07:50;;;;;;;4.35;2.17;;;21.50;99.90;;;;;;4949176;29;20032;-86
2022/07/05 05:10:16;;;;;;;4.80;2.28;;;21.60;99.90;;;;;;4950121;29;20428;-86
2022/07/05 05:12:42;;;;;;;6.72;2.17;;;21.60;99.90;;;;;;4949151;29;20063;-85
2022/07/05 05:15:09;;;;;;;2.72;1.90;;;21.60;99.90;;;;;;4947888;29;20031;-85
2022/07/05 05:17:44;;;;;;;5.80;2.15;;;21.60;99.90;;;;;;4950545;29;20023;-85
2022/07/05 05:20:14;;;;;;;;;;;21.60;99.90;;;;;;4953133;29;20035;-83
2022/07/05 05:22:40;;;;;;;8.05;2.30;;;21.60;99.90;;;;;;4951971;29;19918;-85
2022/07/05 05:25:07;;;;;;;6.43;2.42;;;21.50;99.90;;;;;;4956532;29;20036;-83
2022/07/05 05:27:32;;;;;;;5.18;1.75;;;21.60;99.90;;;;;;4957341;29;20035;-84
2022/07/05 05:29:59;;;;;;;2.53;2.00;;;21.60;99.90;;;;;;4957339;29;20024;-83
2022/07/05 05:32:25;;;;;;;3.38;2.08;;;21.60;99.90;;;;;;4957734;29;20024;-84
2022/07/05 05:34:50;;;;;;;2.60;1.70;;;21.50;99.90;;;;;;4942471;29;20060;-84
2022/07/05 05:37:16;;;;;;;4.63;2.30;;;21.60;99.90;;;;;;4961537;28;20038;-88
2022/07/05 05:39:42;;;;;;;5.75;2.35;;;21.60;99.90;;;;;;4952293;28;20044;-87
2022/07/05 05:42:08;;;;;;;3.03;2.00;;;21.60;99.90;;;;;;4947094;28;20092;-85
2022/07/05 05:44:34;;;;;;;7.10;2.22;;;21.60;99.90;;;;;;4944244;29;20023;-86
2022/07/05 05:47:00;;;;;;;4.65;1.98;;;21.50;99.90;;;;;;4961659;28;20054;-86
2022/07/05 05:49:26;;;;;;;6.00;2.42;;;21.50;99.90;;;;;;4961566;28;20059;-88
2022/07/05 05:51:51;;;;;;;2.90;2.20;;;21.40;99.90;;;;;;4961293;28;20059;-88
2022/07/05 05:54:17;;;;;;;3.22;2.00;;;21.30;99.90;;;;;;4954242;28;20024;-86
2022/07/05 05:56:44;;;;;;;3.50;2.20;;;21.30;99.90;;;;;;4942875;29;20031;-88
2022/07/05 05:59:10;;;;;;;8.30;2.75;;;21.30;99.90;;;;;;4950728;28;20024;-87
2022/07/05 06:01:36;;;;;;;3.67;2.42;;;21.20;99.90;;;;;;4954502;29;20040;-85
2022/07/05 06:04:02;;;;;;;4.45;2.50;;;21.30;99.90;;;;;;4929188;29;20519;-85
2022/07/05 06:06:28;;;;;;;3.80;2.58;;;21.30;99.90;;;;;;4941689;29;20016;-86
2022/07/05 06:08:53;;;;;;;5.20;3.10;;;21.40;99.90;;;;;;4933356;29;20039;-87
2022/07/05 06:11:19;;;;;;;4.22;2.40;;;21.40;99.90;;;;;;4943794;29;20039;-88
2022/07/05 06:13:45;;;;;;;4.45;2.20;;;21.40;99.90;;;;;;4927188;29;20087;-85
2022/07/05 06:16:11;;;;;;;6.90;3.33;;;21.40;99.90;;;;;;4953804;29;20027;-86
2022/07/05 06:18:37;;;;;;;5.15;2.53;;;21.40;99.90;;;;;;4952648;29;20115;-86
2022/07/05 06:21:03;;;;;;;3.25;2.75;;;21.30;99.90;;;;;;4953215;29;20106;-86
2022/07/05 06:23:29;;;;;;;4.43;2.60;;;21.20;99.90;;;;;;4954645;29;20023;-86
2022/07/05 06:25:55;;;;;;;4.55;2.58;;;21.20;99.90;;;;;;4930277;29;20030;-86
2022/07/05 06:28:20;;;;;;;4.00;2.42;;;21.30;99.90;;;;;;4946205;29;20034;-87
2022/07/05 06:30:46;;;;;;;3.67;2.85;;;21.40;99.90;;;;;;4972458;29;20031;-88
2022/07/05 06:33:13;;;;;;;4.80;2.60;;;21.40;99.90;;;;;;4975748;29;20035;-88
2022/07/05 06:35:39;;;;;;;5.35;2.90;;;21.40;99.90;;;;;;4952354;29;20040;-87
2022/07/05 06:38:08;;;;;;;6.93;3.15;;;21.30;99.90;;;;;;4954556;29;20047;-89
2022/07/05 06:40:43;;;;;;;7.30;3.10;;;21.40;99.90;;;;;;4955765;29;20019;-89
2022/07/05 06:43:10;;;;;;;;;;;21.50;99.90;;;;;;4958835;28;20079;-88
2022/07/05 06:45:40;;;;;;;11.30;3.55;;;21.70;99.90;;;;;;4941180;29;20042;-86
2022/07/05 06:48:08;;;;;;;6.97;3.65;;;21.80;99.90;;;;;;4959325;28;20084;-87
2022/07/05 06:50:36;;;;;;;4.95;3.15;;;21.80;99.90;;;;;;4959957;28;20024;-88
2022/07/05 06:53:03;;;;;;;5.13;3.13;;;22.00;99.90;;;;;;4963395;23;20036;-82
2022/07/05 06:55:29;;;;;;;5.35;2.75;;;22.20;99.90;;;;;;4949281;28;20540;-84
2022/07/05 06:58:06;;;;;;;4.03;2.60;;;22.20;99.90;;;;;;4941679;29;20058;-83
2022/07/05 07:00:33;;;;;;;4.93;2.28;;;22.30;99.90;;;;;;4946493;29;20110;-82
2022/07/05 07:02:59;;;;;;;3.28;2.58;;;22.30;99.90;;;;;;4933101;28;20028;-82
2022/07/05 07:05:25;;;;;;;5.45;2.72;;;22.20;99.90;;;;;;4928681;29;20469;-81
2022/07/05 07:10:49;;;;;;;7.57;2.45;;;22.20;99.90;;;;;;4914099;29;20096;-80
2022/07/05 07:13:15;;;;;;;6.10;2.30;;;22.30;99.90;;;;;;4927072;29;20031;-82
2022/07/05 07:15:41;;;;;;;5.22;2.08;;;22.40;99.90;;;;;;4943242;29;20036;-81
2022/07/05 07:18:07;;;;;;;3.00;1.83;;;22.50;99.90;;;;;;4931782;29;20020;-80
2022/07/05 07:20:33;;;;;;;4.10;2.03;;;22.50;99.90;;;;;;4928662;29;20115;-80
2022/07/05 07:22:58;;;;;;;6.43;3.42;;;22.40;99.90;;;;;;4933231;29;20032;-81
2022/07/05 07:25:24;;;;;;;5.60;2.08;;;22.50;99.90;;;;;;4915015;29;20037;-82
2022/07/05 07:27:52;;;;;;;3.30;1.40;;;22.60;99.90;;;;;;4924439;29;20044;-81
2022/07/05 07:30:23;;;;;;;14.30;1.90;;;22.70;99.90;;;;;;4940830;29;20039;-84
2022/07/05 07:32:49;;;;;;;4.85;2.22;;;22.60;99.90;;;;;;4925838;29;20070;-80
2022/07/05 07:35:14;;;;;;;5.80;1.80;;;22.60;99.90;;;;;;4928039;29;20072;-82
2022/07/05 07:37:40;;;;;;;5.10;1.70;;;22.70;99.90;;;;;;4925703;29;20028;-83
2022/07/05 07:40:07;;;;;;;4.93;2.00;;;22.70;99.90;;;;;;4908240;29;20348;-81
2022/07/05 07:42:34;;;;;;;4.03;1.70;;;22.70;99.90;;;;;;4927082;29;20028;-81
2022/07/05 07:45:03;;;;;;;3.28;1.73;;;22.80;99.90;;;;;;4928021;29;20039;-82
2022/07/05 07:47:33;;;;;;;4.75;2.00;;;22.80;99.90;;;;;;4922782;29;20032;-81
2022/07/05 07:50:00;;;;;;;1.85;1.40;;;22.80;99.90;;;;;;4935064;29;20047;-81
2022/07/05 07:52:26;;;;;;;2.03;1.50;;;22.80;99.90;;;;;;4922637;29;20490;-83
2022/07/05 07:54:52;;;;;;;2.63;1.60;;;22.80;99.90;;;;;;4921183;29;20064;-82
2022/07/05 07:57:18;;;;;;;2.92;2.00;;;23.10;99.90;;;;;;4923436;29;20028;-82
2022/07/05 07:59:44;;;;;;;2.58;1.85;;;23.30;99.90;;;;;;4924431;29;20028;-83
2022/07/05 08:02:10;;;;;;;3.00;1.48;;;23.40;99.90;;;;;;4926596;29;20020;-82
2022/07/05 08:04:36;;;;;;;4.90;1.48;;;23.50;99.90;;;;;;4932040;29;20450;-80
2022/07/05 08:07:03;;;;;;;7.65;1.50;;;23.70;99.90;;;;;;4917903;29;20028;-81
2022/07/05 08:09:30;;;;;;;1.42;1.25;;;23.70;99.90;;;;;;4932788;29;20032;-79
2022/07/05 08:11:56;;;;;;;1.40;1.10;;;23.70;99.90;;;;;;4935536;29;20031;-82
2022/07/05 08:14:22;;;;;;;2.75;1.63;;;23.70;99.90;;;;;;4917719;29;20032;-82
2022/07/05 08:16:49;;;;;;;2.17;1.55;;;23.90;99.90;;;;;;4934862;28;20028;-84
2022/07/05 08:22:01;;;;;;;4.32;1.55;;;23.90;99.90;;;;;;4904531;29;20051;-83
2022/07/05 08:24:27;;;;;;;7.72;1.33;;;24.00;99.90;;;;;;4905034;29;20434;-82
2022/07/05 08:26:53;;;;;;;3.65;1.20;;;23.90;99.90;;;;;;4914718;29;20053;-83
2022/07/05 08:29:18;;;;;;;3.95;1.42;;;23.90;99.90;;;;;;4918693;29;20037;-84
2022/07/05 08:31:49;;;;;;;6.65;1.30;;;24.00;99.90;;;;;;4922465;29;20040;-80
2022/07/05 08:34:17;;;;;;;4.68;1.42;;;24.10;99.90;;;;;;4924126;29;20032;-82
2022/07/05 08:36:43;;;;;;;5.65;1.45;;;24.00;99.90;;;;;;4922709;29;20021;-81
2022/07/05 08:39:10;;;;;;;5.10;1.30;;;23.90;99.90;;;;;;4910484;29;20043;-81
2022/07/05 08:41:37;;;;;;;5.95;1.48;;;23.90;99.90;;;;;;4920709;29;20084;-81
2022/07/05 08:44:06;;;;;;;6.03;1.42;;;23.70;99.90;;;;;;4914678;29;20107;-82
2022/07/05 08:46:33;;;;;;;3.75;1.38;;;23.40;99.90;;;;;;4915724;29;20028;-82
2022/07/05 08:49:01;;;;;;;5.28;1.52;;;23.20;99.90;;;;;;4913777;29;20084;-81
2022/07/05 08:51:28;;;;;;;6.60;1.50;;;23.00;99.90;;;;;;4916374;29;20125;-81
2022/07/05 08:53:57;;;;;;;5.85;1.63;;;22.80;99.90;;;;;;4921270;29;20040;-80
2022/07/05 08:56:23;;;;;;;2.92;1.23;;;22.80;99.90;;;;;;4923572;29;20052;-82
2022/07/05 08:58:49;;;;;;;2.42;1.40;;;23.00;99.90;;;;;;4919709;29;20045;-80
2022/07/05 09:01:15;;;;;;;3.85;1.30;;;22.90;99.90;;;;;;4919702;29;20021;-80
2022/07/05 09:03:47;;;;;;;9.27;2.33;;;22.70;99.90;;;;;;4915629;29;20032;-82
2022/07/05 09:06:17;;;;;;;6.15;1.50;;;22.60;99.90;;;;;;4918006;29;20603;-82
2022/07/05 09:08:44;;;;;;;9.02;1.65;;;22.40;99.90;;;;;;4932506;29;20030;-80
2022/07/05 09:11:12;;;;;;;4.65;1.67;;;22.20;99.90;;;;;;4913884;29;20044;-82
2022/07/05 09:13:41;;;;;;;2.50;1.60;;;22.10;99.90;;;;;;4914680;29;20047;-83
2022/07/05 09:16:07;;;;;;;10.18;2.08;;;22.20;99.90;;;;;;4915380;29;20028;-83
2022/07/05 09:18:45;;;;;;;4.63;1.83;;;22.20;99.90;;;;;;4916066;29;20024;-83
2022/07/05 09:21:14;;;;;;;9.20;1.60;;;22.00;99.90;;;;;;4913861;29;20029;-81
2022/07/05 09:23:40;;;;;;;6.72;2.00;;;21.80;99.90;;;;;;4913170;29;20031;-83
2022/07/05 09:26:06;;;;;;;3.58;1.92;;;21.60;99.90;;;;;;4915993;29;20123;-81
2022/07/05 09:28:31;;;;;;;5.55;1.80;;;21.50;99.90;;;;;;4916264;29;20392;-83
2022/07/05 09:30:57;;;;;;;7.18;1.95;;;21.50;99.90;;;;;;4929241;29;20132;-81
2022/07/05 09:33:23;;;;;;;1.90;1.67;;;21.30;99.90;;;;;;4925588;29;20043;-82
2022/07/05 09:35:56;;;;;;;4.38;1.70;;;21.20;99.90;;;;;;4926565;29;20808;-81
2022/07/05 09:38:26;;;;;;;4.90;1.60;;;21.10;99.90;;;;;;4934457;29;20042;-81
2022/07/05 09:40:55;;;;;;;3.38;1.50;;;21.10;99.90;;;;;;4926400;29;20080;-81
2022/07/05 09:43:28;;;;;;;4.50;1.52;;;21.10;99.90;;;;;;4925887;29;20020;-81
2022/07/05 09:46:04;;;;;;;3.95;1.70;;;21.00;99.90;;;;;;4931548;29;20031;-81
2022/07/05 09:48:32;;;;;;;2.15;1.40;;;20.90;99.90;;;;;;4931297;29;20042;-81
2022/07/05 09:51:09;;;;;;;2.60;1.52;;;20.80;99.90;;;;;;4924508;29;20064;-82
2022/07/05 09:53:48;;;;;;;4.68;1.58;;;20.70;99.90;;;;;;4924737;29;20031;-79
2022/07/05 09:56:14;;;;;;;2.58;1.60;;;20.70;99.90;;;;;;4924804;29;20084;-82
2022/07/05 09:58:40;;;;;;;6.47;1.70;;;20.80;99.90;;;;;;4921669;29;20028;-81
2022/07/05 10:01:36;;;;;;;5.07;2.10;;;20.80;99.90;;;;;;4923774;29;20035;-81
2022/07/05 10:04:02;;;;;;;5.30;1.55;;;20.90;99.90;;;;;;4917010;29;20088;-82
2022/07/05 10:06:31;;;;;;;3.30;1.55;;;20.80;99.90;;;;;;4923268;29;20056;-83
2022/07/05 10:08:58;;;;;;;2.50;1.30;;;20.80;99.90;;;;;;4923640;29;20024;-81
2022/07/05 10:11:24;;;;;;;3.90;1.40;;;20.70;99.90;;;;;;4922935;29;20029;-81
2022/07/05 10:13:52;;;;;;;4.60;2.25;;;20.70;99.90;;;;;;4922580;29;20032;-81
2022/07/05 10:16:20;;;;;;;6.68;3.35;;;20.60;99.90;;;;;;4923322;29;20131;-81
2022/07/05 10:18:47;;;;;;;7.55;5.18;;;20.70;99.90;;;;;;4923383;29;20083;-82
2022/07/05 10:21:15;;;;;;;3.53;1.75;;;20.60;99.90;;;;;;4919118;29;20024;-81
2022/07/05 10:23:55;;;;;;;4.78;1.65;;;20.70;99.90;;;;;;4914209;29;20028;-80
2022/07/05 10:26:23;;;;;;;5.55;1.85;;;20.90;99.90;;;;;;4915959;29;20020;-83
2022/07/05 10:28:52;;;;;;;3.40;1.63;;;20.90;99.90;;;;;;4916757;29;20140;-80
2022/07/05 10:31:18;;;;;;;8.75;1.70;;;21.00;99.90;;;;;;4913657;29;20065;-82
2022/07/05 10:33:45;;;;;;;2.85;1.58;;;21.10;99.90;;;;;;4945867;29;20511;-82
2022/07/05 10:36:12;;;;;;;3.67;1.70;;;21.10;99.90;;;;;;4914303;29;20057;-79
2022/07/05 10:38:42;;;;;;;2.55;1.70;;;21.00;99.90;;;;;;4928710;29;20032;-80
2022/07/05 10:41:17;;;;;;;3.28;1.83;;;20.90;99.90;;;;;;4915156;29;20064;-82
2022/07/05 10:43:43;;;;;;;2.55;2.00;;;20.80;99.90;;;;;;4934398;29;20067;-81
2022/07/05 10:46:09;;;;;;;2.78;1.58;;;20.70;99.90;;;;;;4914269;29;20111;-82
2022/07/05 10:48:36;;;;;;;4.53;1.63;;;20.70;99.90;;;;;;4919145;29;20552;-81
2022/07/05 10:51:15;;;;;;;7.60;2.10;;;20.70;99.90;;;;;;4917381;29;20075;-80
2022/07/05 10:53:42;;;;;;;4.22;1.88;;;20.60;99.90;;;;;;4917603;29;20083;-81
2022/07/05 10:56:07;;;;;;;3.25;1.83;;;20.50;99.90;;;;;;4920345;29;20462;-82
2022/07/05 10:58:46;;;;;;;6.28;2.17;;;20.50;99.90;;;;;;4915836;29;20036;-81
2022/07/05 11:01:12;;;;;;;6.50;1.83;;;20.50;99.90;;;;;;4927125;29;20036;-80
2022/07/05 11:03:42;;;;;;;2.97;1.75;;;20.40;99.90;;;;;;4920739;29;20528;-83
2022/07/05 11:06:18;;;;;;;3.60;2.25;;;20.50;99.90;;;;;;4914335;29;20025;-82
2022/07/05 11:08:59;;;;;;;1.98;1.73;;;20.50;99.90;;;;;;4916610;29;20037;-80
2022/07/05 11:11:29;;;;;;;4.68;1.80;;;20.50;99.90;;;;;;4918692;29;20060;-81
2022/07/05 11:13:58;;;;;;;4.53;2.40;;;20.50;99.90;;;;;;4925557;29;20040;-82
2022/07/05 11:16:33;;;;;;;4.00;2.42;;;20.40;99.90;;;;;;4954274;29;20044;-82
2022/07/05 11:19:21;;;;;;;7.07;2.22;;;20.40;99.90;;;;;;4918229;29;20032;-80
2022/07/05 11:22:01;;;;;;;5.65;2.42;;;20.40;99.90;;;;;;4944440;29;20055;-82
2022/07/05 11:24:30;;;;;;;3.17;2.05;;;20.40;99.90;;;;;;4914277;29;20073;-82
2022/07/05 11:27:01;;;;;;;2.50;2.10;;;20.40;99.90;;;;;;4914079;29;20028;-82
2022/07/05 11:29:44;;;;;;;3.50;2.00;;;20.50;99.90;;;;;;4927579;29;20028;-81
2022/07/05 11:32:13;;;;;;;2.55;2.00;;;20.50;99.90;;;;;;4915695;29;20036;-82
2022/07/05 11:34:39;;;;;;;8.13;2.45;;;20.50;99.90;;;;;;4930783;29;20033;-80
2022/07/05 11:37:14;;;;;;;11.30;2.20;;;20.50;99.90;;;;;;4916765;29;20113;-82
2022/07/05 11:39:42;;;;;;;6.32;2.15;;;20.60;99.90;;;;;;4913293;29;20060;-83
2022/07/05 11:42:10;;;;;;;2.50;1.90;;;20.60;99.90;;;;;;4930106;29;20096;-83
2022/07/05 11:44:40;;;;;;;9.32;2.10;;;20.60;99.90;;;;;;4915332;29;20020;-82
2022/07/05 11:47:08;;;;;;;4.53;2.00;;;20.60;99.90;;;;;;4913906;29;20063;-82
2022/07/05 11:49:34;;;;;;;8.38;2.83;;;20.60;99.90;;;;;;4913972;29;20047;-82
2022/07/05 11:52:02;;;;;;;5.13;2.30;;;20.60;99.90;;;;;;4911927;29;20485;-82
2022/07/05 11:54:33;;;;;;;5.95;2.45;;;20.70;99.90;;;;;;4930294;29;20032;-82
2022/07/05 11:57:00;;;;;;;11.00;2.17;;;20.80;99.90;;;;;;4925876;29;20051;-81
2022/07/05 11:59:26;;;;;;;6.57;2.55;;;20.90;99.90;;;;;;4918276;29;20130;-81
2022/07/05 12:01:59;;;;;;;6.38;2.55;;;21.00;99.90;;;;;;4923266;29;20029;-83
2022/07/05 12:04:27;;;;;;;11.98;7.68;;;21.10;99.90;;;;;;4914205;29;20028;-83
2022/07/05 12:06:55;;;;;;;7.63;4.53;;;21.30;99.90;;;;;;4912263;29;20080;-83
2022/07/05 12:09:24;;;;;;;4.35;2.58;;;21.60;99.90;;;;;;4910662;29;20025;-83
2022/07/05 12:14:50;;;;;;;3.50;2.00;;;22.00;99.90;;;;;;4912401;29;20028;-84
2022/07/05 12:17:18;;;;;;;4.85;2.40;;;22.20;99.90;;;;;;4913395;29;20421;-82
2022/07/05 12:19:47;;;;;;;8.02;2.20;;;22.50;99.90;;;;;;4939022;29;20031;-83
2022/07/05 12:22:14;;;;;;;4.68;2.38;;;22.80;99.90;;;;;;4927254;29;20036;-84
2022/07/05 12:24:40;;;;;;;6.07;2.17;;;22.90;99.90;;;;;;4963118;29;20505;-83
2022/07/05 12:27:09;;;;;;;7.18;2.17;;;23.00;99.90;;;;;;4924999;29;20036;-84
2022/07/05 12:29:35;;;;;;;6.50;2.65;;;23.10;99.90;;;;;;4930841;29;20027;-81
2022/07/05 12:32:08;;;;;;;3.30;2.30;;;22.90;99.90;;;;;;4914762;29;20050;-82
2022/07/05 12:34:35;;;;;;;6.28;2.20;;;22.80;99.90;;;;;;4927295;29;20044;-82
2022/07/05 12:37:03;;;;;;;9.07;2.38;;;22.90;99.90;;;;;;4913987;29;20036;-82
2022/07/05 12:39:29;;;;;;;2.80;2.15;;;22.90;99.90;;;;;;4914748;29;20462;-83
2022/07/05 12:41:57;;;;;;;7.43;2.13;;;22.80;99.90;;;;;;4914728;29;20032;-83
2022/07/05 12:44:24;;;;;;;3.95;2.45;;;23.10;99.90;;;;;;4916608;29;20049;-82
2022/07/05 12:46:51;;;;;;;4.28;2.40;;;23.40;99.90;;;;;;4912407;29;20020;-82
2022/07/05 12:49:17;;;;;;;4.97;2.05;;;23.60;99.90;;;;;;4910595;29;20036;-84
2022/07/05 12:51:44;;;;;;;3.47;2.35;;;23.70;99.90;;;;;;4934026;23;20024;-83
2022/07/05 13:00:10;;;;;;;3.17;2.40;;;24.00;99.90;;;;;;4948450;29;19922;-85
2022/07/05 13:02:46;;;;;;;5.00;2.10;;;24.30;99.90;;;;;;4937106;29;20117;-85
2022/07/05 13:05:25;;;;;;;4.55;2.22;;;24.30;99.90;;;;;;4925674;29;20100;-86